Time;durP1;ratioP1;P1;durP2;ratioP2;P2;SDS_P1;SDS_P2;PMS_P1;PMS_P2;Temp;Humidity;BMP_temperature;BMP_pressure;BME280_temperature;BME280_humidity;BME280_pressure;Samples;Min_cycle;Max_cycle;Signal;HPM_P1;HPM_P2
2021/05/03 00:01:49;;;;;;;2.13;1.27;;;;;;;4.87;100.00;100827.06;5012111;28;20049;-83
2021/05/03 00:04:16;;;;;;;2.13;1.30;;;;;;;4.89;100.00;100833.22;5011257;28;20442;-83
2021/05/03 00:06:42;;;;;;;2.07;1.03;;;;;;;4.67;100.00;100829.59;4997629;28;20096;-83
2021/05/03 00:09:08;;;;;;;0.90;0.90;;;;;;;4.62;100.00;100826.94;5007671;28;20046;-87
2021/05/03 00:11:35;;;;;;;1.80;1.20;;;;;;;4.61;100.00;100830.41;5002060;28;20045;-87
2021/05/03 00:14:03;;;;;;;2.27;1.57;;;;;;;4.60;100.00;100827.78;5005805;28;20042;-84
2021/05/03 00:16:32;;;;;;;1.73;1.40;;;;;;;4.65;100.00;100826.97;5002857;28;20037;-83
2021/05/03 00:19:01;;;;;;;2.27;1.30;;;;;;;4.61;100.00;100829.53;4983303;28;20080;-86
2021/05/03 00:21:27;;;;;;;1.50;1.17;;;;;;;4.64;100.00;100826.97;4979231;28;20046;-85
2021/05/03 00:23:59;;;;;;;1.83;1.50;;;;;;;4.63;100.00;100827.84;5005702;28;20049;-85
2021/05/03 00:26:26;;;;;;;3.10;1.60;;;;;;;4.55;100.00;100821.66;4998742;28;20041;-83
2021/05/03 00:28:52;;;;;;;1.97;1.60;;;;;;;4.65;100.00;100828.72;4998638;28;20124;-83
2021/05/03 00:31:18;;;;;;;3.33;1.40;;;;;;;4.57;100.00;100833.88;4982396;28;20037;-83
2021/05/03 00:33:44;;;;;;;2.23;1.43;;;;;;;4.54;100.00;100828.66;4998711;28;20491;-83
2021/05/03 00:36:11;;;;;;;2.37;1.50;;;;;;;4.52;100.00;100835.59;4998354;28;20045;-84
2021/05/03 00:38:37;;;;;;;2.43;1.87;;;;;;;4.63;100.00;100833.06;4997263;28;20042;-83
2021/05/03 00:41:03;;;;;;;1.90;1.57;;;;;;;4.70;100.00;100846.16;4999269;28;20048;-84
2021/05/03 00:43:29;;;;;;;2.27;1.70;;;;;;;4.62;100.00;100831.28;5012273;28;20069;-86
2021/05/03 00:45:55;;;;;;;2.20;1.83;;;;;;;4.58;100.00;100835.63;5007522;28;20096;-87
2021/05/03 00:48:22;;;;;;;3.07;2.00;;;;;;;4.57;100.00;100836.50;4991884;28;20046;-87
2021/05/03 00:50:49;;;;;;;2.30;1.80;;;;;;;4.59;100.00;100837.38;4986927;28;20056;-84
2021/05/03 00:53:15;;;;;;;2.10;1.60;;;;;;;4.62;100.00;100832.16;5006646;28;20392;-84
2021/05/03 00:55:42;;;;;;;2.60;1.70;;;;;;;4.60;100.00;100838.25;4985065;28;20407;-84
2021/05/03 00:58:08;;;;;;;3.83;2.40;;;;;;;4.69;100.00;100840.94;5011267;28;20045;-84
2021/05/03 01:00:35;;;;;;;3.03;1.93;;;;;;;4.66;100.00;100833.94;4996997;28;20041;-84
2021/05/03 01:03:01;;;;;;;4.57;2.00;;;;;;;4.72;100.00;100840.97;4993897;28;20483;-84
2021/05/03 01:05:29;;;;;;;2.63;2.00;;;;;;;4.72;100.00;100838.34;5014610;28;20046;-83
2021/05/03 01:07:56;;;;;;;2.67;2.23;;;;;;;4.72;100.00;100839.22;4991479;28;20052;-83
2021/05/03 01:10:22;;;;;;;3.73;1.93;;;;;;;4.84;100.00;100834.91;4979018;28;20038;-83
2021/05/03 01:12:48;;;;;;;2.77;1.80;;;;;;;4.74;100.00;100845.34;4996018;28;20427;-86
2021/05/03 01:15:22;;;;;;;3.43;2.13;;;;;;;4.68;100.00;100840.06;5008441;28;20037;-85
2021/05/03 01:17:59;;;;;;;3.30;2.30;;;;;;;4.63;100.00;100840.91;5007387;28;20049;-83
2021/05/03 01:20:28;;;;;;;3.07;2.37;;;;;;;4.66;100.00;100849.66;4995556;28;20041;-83
2021/05/03 01:22:56;;;;;;;3.13;2.70;;;;;;;4.63;100.00;100848.75;4991007;28;20049;-84
2021/05/03 01:25:28;;;;;;;4.00;3.10;;;;;;;4.86;100.00;100841.03;4996889;28;20041;-86
2021/05/03 01:27:55;;;;;;;4.03;2.80;;;;;;;4.73;100.00;100842.72;5009069;28;20095;-83
2021/05/03 01:30:28;;;;;;;3.93;3.13;;;;;;;4.75;100.00;100849.69;5008163;28;20041;-84
2021/05/03 01:32:55;;;;;;;5.10;4.07;;;;;;;4.96;100.00;100848.06;5005862;28;20050;-85
2021/05/03 01:35:21;;;;;;;6.03;4.13;;;;;;;5.00;100.00;100850.72;4998289;28;20080;-86
2021/05/03 01:37:54;;;;;;;5.30;3.77;;;;;;;5.05;100.00;100846.41;5019567;28;20053;-86
2021/05/03 01:40:24;;;;;;;5.93;3.97;;;;;;;4.98;100.00;100852.47;5103858;23;20055;-84
2021/05/03 01:42:50;;;;;;;6.87;4.63;;;;;;;4.92;100.00;100855.03;5030612;28;20036;-84
2021/05/03 01:45:22;;;;;;;7.37;4.47;;;;;;;5.06;100.00;100852.50;5014374;28;20106;-83
2021/05/03 01:47:54;;;;;;;10.43;4.70;;;;;;;4.97;100.00;100852.47;5049169;28;20536;-84
2021/05/03 01:50:22;;;;;;;6.17;3.93;;;;;;;5.03;100.00;100847.22;5008975;28;20049;-83
2021/05/03 01:52:49;;;;;;;6.83;5.17;;;;;;;5.01;100.00;100852.47;5032294;28;20056;-84
2021/05/03 01:55:17;;;;;;;7.63;4.73;;;;;;;5.07;100.00;100851.63;5048006;28;20048;-84
2021/05/03 01:57:43;;;;;;;8.63;4.77;;;;;;;5.01;100.00;100862.94;5025710;28;20049;-84
2021/05/03 02:00:10;;;;;;;7.50;4.87;;;;;;;5.05;100.00;100859.50;5016994;28;20037;-83
2021/05/03 02:02:36;;;;;;;8.83;5.47;;;;;;;5.10;100.00;100859.50;5002037;28;20414;-84
2021/05/03 02:05:03;;;;;;;10.23;6.03;;;;;;;5.16;100.00;100853.41;5029657;28;20067;-84
2021/05/03 02:07:30;;;;;;;8.87;5.47;;;;;;;5.20;100.00;100863.03;5015834;28;20074;-83
2021/05/03 02:09:56;;;;;;;7.53;5.43;;;;;;;5.15;100.00;100859.53;5031646;28;20043;-82
2021/05/03 02:12:22;;;;;;;7.43;5.20;;;;;;;5.10;100.00;100867.34;5011926;28;20038;-83
2021/05/03 02:14:49;;;;;;;6.60;5.43;;;;;;;5.22;100.00;100861.31;5000051;28;20049;-83
2021/05/03 02:17:15;;;;;;;6.93;5.60;;;;;;;5.19;100.00;100866.53;5014022;28;20486;-83
2021/05/03 02:19:42;;;;;;;6.80;5.63;;;;;;;5.18;100.00;100863.03;5028460;28;20045;-86
2021/05/03 02:22:08;;;;;;;6.13;4.80;;;;;;;5.11;100.00;100860.38;5017019;28;20176;-84
2021/05/03 02:24:34;;;;;;;9.93;5.53;;;;;;;5.14;100.00;100861.28;5011384;28;20045;-85
2021/05/03 02:27:00;;;;;;;6.80;5.00;;;;;;;5.14;100.00;100870.88;5022420;28;20048;-84
2021/05/03 02:29:27;;;;;;;7.70;5.23;;;;;;;5.17;100.00;100863.91;5030708;28;20107;-83
2021/05/03 02:31:53;;;;;;;8.97;5.27;;;;;;;5.18;100.00;100870.00;5038676;28;20507;-83
2021/05/03 02:34:19;;;;;;;9.37;5.73;;;;;;;5.20;100.00;100865.66;5038454;28;20505;-83
2021/05/03 02:36:46;;;;;;;8.50;5.30;;;;;;;5.22;100.00;100867.44;5038875;28;20043;-85
2021/05/03 02:39:12;;;;;;;9.00;5.20;;;;;;;5.11;100.00;100876.06;5038144;28;20033;-83
2021/05/03 02:41:38;;;;;;;7.17;5.03;;;;;;;5.19;100.00;100879.63;5032613;28;20401;-83
2021/05/03 02:44:04;;;;;;;8.20;5.23;;;;;;;5.14;100.00;100873.50;5056400;28;20064;-83
2021/05/03 02:46:30;;;;;;;7.67;5.30;;;;;;;5.05;100.00;100879.56;5078605;28;20364;-81
2021/05/03 02:48:57;;;;;;;7.03;5.53;;;;;;;5.04;100.00;100876.06;5041687;28;20048;-84
2021/05/03 02:51:23;;;;;;;8.50;5.97;;;;;;;5.15;100.00;100872.63;5042033;28;20070;-85
2021/05/03 02:53:49;;;;;;;5.53;4.53;;;;;;;5.05;100.00;100876.94;5075512;28;20044;-84
2021/05/03 02:56:15;;;;;;;6.60;5.10;;;;;;;5.04;100.00;100876.06;5055970;28;20516;-84
2021/05/03 02:58:41;;;;;;;7.47;4.77;;;;;;;4.99;100.00;100882.13;5036724;28;20442;-83
2021/05/03 03:01:08;;;;;;;7.57;5.50;;;;;;;4.94;100.00;100881.22;5055855;28;20579;-83
2021/05/03 03:03:34;;;;;;;8.83;6.17;;;;;;;4.97;100.00;100883.88;5073016;28;20040;-83
2021/05/03 03:06:00;;;;;;;11.67;5.97;;;;;;;4.99;100.00;100887.38;5030307;28;20090;-82
2021/05/03 03:08:26;;;;;;;5.50;4.40;;;;;;;4.97;100.00;100892.59;5041541;28;20094;-81
2021/05/03 03:10:52;;;;;;;6.40;5.00;;;;;;;4.97;100.00;100890.00;5040270;28;20043;-81
2021/05/03 03:13:18;;;;;;;11.07;5.47;;;;;;;4.94;100.00;100894.31;5043787;28;20097;-81
2021/05/03 03:15:45;;;;;;;7.03;4.67;;;;;;;4.94;100.00;100889.94;5036160;28;20043;-81
2021/05/03 03:18:11;;;;;;;10.70;5.47;;;;;;;4.98;100.00;100896.09;5063518;28;20047;-82
2021/05/03 03:20:37;;;;;;;5.80;4.30;;;;;;;4.87;100.00;100889.91;5057496;28;20036;-81
2021/05/03 03:23:03;;;;;;;7.57;4.83;;;;;;;4.89;100.00;100899.53;5058224;28;20481;-81
2021/05/03 03:25:29;;;;;;;9.10;5.67;;;;;;;4.89;100.00;100901.28;5054076;28;20036;-81
2021/05/03 03:27:57;;;;;;;5.73;4.90;;;;;;;4.87;100.00;100900.38;5045658;28;20064;-81
2021/05/03 03:30:23;;;;;;;7.47;4.80;;;;;;;4.82;100.00;100899.47;5034859;28;20048;-81
2021/05/03 03:32:49;;;;;;;7.40;4.60;;;;;;;4.90;100.00;100903.91;5048162;28;20040;-81
2021/05/03 03:35:20;;;;;;;7.50;5.13;;;;;;;4.84;100.00;100916.94;5058124;28;20496;-81
2021/05/03 03:37:48;;;;;;;6.03;4.57;;;;;;;4.78;100.00;100909.03;5041012;28;20040;-81
2021/05/03 03:40:16;;;;;;;7.03;4.70;;;;;;;4.75;100.00;100907.28;5038933;28;20181;-82
2021/05/03 03:42:42;;;;;;;5.83;4.23;;;;;;;4.75;100.00;100911.66;5066437;28;20039;-81
2021/05/03 03:45:09;;;;;;;8.63;4.93;;;;;;;4.77;100.00;100920.38;5058474;28;20663;-81
2021/05/03 03:47:36;;;;;;;5.43;4.33;;;;;;;4.73;100.00;100919.50;5040622;28;20126;-82
2021/05/03 03:50:04;;;;;;;6.77;4.57;;;;;;;4.65;100.00;100925.53;5044142;28;20044;-84
2021/05/03 03:52:30;;;;;;;8.60;4.63;;;;;;;4.71;100.00;100917.75;5031209;28;20516;-82
2021/05/03 03:54:56;;;;;;;8.17;4.77;;;;;;;4.77;100.00;100921.25;5063619;28;20098;-81
2021/05/03 03:57:23;;;;;;;7.93;5.17;;;;;;;4.81;100.00;100924.78;5034895;28;20066;-82
2021/05/03 03:59:55;;;;;;;7.17;5.40;;;;;;;4.77;100.00;100929.09;5041397;28;20159;-84
2021/05/03 04:02:21;;;;;;;8.57;4.50;;;;;;;4.80;100.00;100925.66;5055869;28;20277;-82
2021/05/03 04:05:04;;;;;;;7.73;4.57;;;;;;;4.73;100.00;100922.09;5039557;28;20044;-82
2021/05/03 04:07:36;;;;;;;7.60;4.60;;;;;;;4.84;100.00;100922.19;5056929;28;20049;-82
2021/05/03 04:26:13;;;;;;;7.90;5.20;;;;;;;4.84;100.00;100950.09;5071997;28;20043;-85
2021/05/03 04:28:43;;;;;;;5.60;4.87;;;;;;;4.88;100.00;100947.53;5052785;28;20049;-86
2021/05/03 04:31:09;;;;;;;9.93;5.17;;;;;;;4.94;100.00;100950.16;5040346;28;20043;-83
2021/05/03 04:33:36;;;;;;;8.07;4.80;;;;;;;4.95;100.00;100945.81;5058590;28;20051;-82
2021/05/03 04:36:03;;;;;;;9.13;5.27;;;;;;;4.97;100.00;100957.19;5042505;28;20056;-81
2021/05/03 04:38:29;;;;;;;6.03;4.23;;;;;;;5.03;100.00;100963.31;5056669;28;20048;-80
2021/05/03 04:40:55;;;;;;;5.77;4.70;;;;;;;5.00;100.00;100954.59;5072734;28;20488;-80
2021/05/03 04:43:22;;;;;;;6.87;4.13;;;;;;;4.95;100.00;100958.91;5040422;28;20054;-82
2021/05/03 04:45:49;;;;;;;43.23;23.80;;;;;;;4.91;100.00;100957.13;5054142;28;20048;-82
2021/05/03 04:48:16;;;;;;;154.93;90.30;;;;;;;4.88;100.00;100963.25;5043682;28;20131;-82
2021/05/03 04:50:44;;;;;;;29.90;17.83;;;;;;;4.83;100.00;100967.53;5067895;28;20040;-81
2021/05/03 04:53:10;;;;;;;8.57;4.47;;;;;;;4.92;100.00;100966.75;5050086;28;20638;-84
2021/05/03 04:55:37;;;;;;;8.60;5.83;;;;;;;4.84;100.00;100966.69;5054149;28;20624;-84
2021/05/03 04:58:07;;;;;;;13.13;5.53;;;;;;;4.97;100.00;100970.28;5036159;28;20067;-83
2021/05/03 05:00:33;;;;;;;8.73;4.67;;;;;;;4.99;100.00;100966.78;5035239;28;20040;-82
2021/05/03 05:02:59;;;;;;;6.23;3.90;;;;;;;4.97;100.00;100965.91;5049655;28;20044;-81
2021/05/03 05:05:27;;;;;;;5.13;3.90;;;;;;;5.01;100.00;100974.66;5065032;28;20037;-82
2021/05/03 05:07:55;;;;;;;6.87;5.30;;;;;;;4.93;100.00;100974.59;5063523;28;20445;-84
2021/05/03 05:10:24;;;;;;;7.47;4.83;;;;;;;4.95;100.00;100977.22;5035274;28;20047;-84
2021/05/03 05:12:50;;;;;;;4.57;3.43;;;;;;;4.89;100.00;100979.81;5056994;28;20040;-83
2021/05/03 05:15:17;;;;;;;10.27;4.03;;;;;;;4.93;100.00;100984.19;5055847;28;20071;-81
2021/05/03 05:17:46;;;;;;;6.13;3.73;;;;;;;5.01;100.00;100979.91;5089545;28;20048;-84
2021/05/03 05:20:12;;;;;;;5.83;4.73;;;;;;;4.92;100.00;100982.44;5050457;28;20044;-81
2021/05/03 05:22:38;;;;;;;6.73;3.30;;;;;;;4.91;100.00;100988.56;5048107;28;20059;-81
2021/05/03 05:25:06;;;;;;;5.43;3.50;;;;;;;4.90;100.00;100989.41;5048850;28;20052;-80
2021/05/03 05:27:32;;;;;;;5.30;3.53;;;;;;;5.04;100.00;100983.44;5056560;28;20054;-83
2021/05/03 05:29:58;;;;;;;9.10;3.77;;;;;;;5.01;100.00;100993.88;5052342;28;20045;-81
2021/05/03 05:32:24;;;;;;;9.47;6.40;;;;;;;5.09;100.00;100989.56;5043387;28;20456;-82
2021/05/03 05:34:50;;;;;;;6.13;3.93;;;;;;;5.18;100.00;100996.59;5052865;28;20496;-81
2021/05/03 05:37:17;;;;;;;6.10;3.87;;;;;;;5.22;100.00;101001.00;5053596;28;20048;-81
2021/05/03 05:39:43;;;;;;;8.00;3.60;;;;;;;5.23;100.00;100999.28;5036360;28;20036;-82
2021/05/03 05:42:09;;;;;;;7.37;3.97;;;;;;;5.34;100.00;100994.97;5039144;28;20074;-83
2021/05/03 05:44:35;;;;;;;9.37;3.97;;;;;;;5.36;100.00;100998.47;5056862;28;20431;-82
2021/05/03 05:47:01;;;;;;;4.20;3.20;;;;;;;5.34;100.00;101002.81;5073993;28;20489;-82
2021/05/03 05:49:28;;;;;;;5.93;3.20;;;;;;;5.42;100.00;101001.13;5038420;28;20036;-82
2021/05/03 05:51:54;;;;;;;4.80;3.77;;;;;;;5.43;100.00;101007.25;5056230;28;20047;-85
2021/05/03 05:54:20;;;;;;;3.77;2.90;;;;;;;5.29;99.76;101005.41;5037926;28;20132;-83
2021/05/03 05:56:46;;;;;;;5.43;3.33;;;;;;;5.28;100.00;101008.00;5056211;28;20040;-82
2021/05/03 05:59:14;;;;;;;6.80;4.00;;;;;;;5.24;100.00;101011.50;5053447;28;20090;-82
2021/05/03 06:01:41;;;;;;;8.83;3.53;;;;;;;5.31;100.00;101015.91;5055984;28;20043;-81
2021/05/03 06:04:08;;;;;;;5.30;2.50;;;;;;;5.29;100.00;101015.00;5038980;28;20040;-81
2021/05/03 06:06:34;;;;;;;4.83;3.60;;;;;;;5.30;100.00;100996.69;5031373;28;20144;-82
2021/05/03 06:09:01;;;;;;;5.20;3.47;;;;;;;5.37;100.00;101013.31;5039029;28;20040;-82
2021/05/03 06:11:28;;;;;;;6.57;3.37;;;;;;;5.52;100.00;101008.16;5041774;28;20040;-80
2021/05/03 06:13:54;;;;;;;5.73;3.20;;;;;;;5.60;100.00;101005.59;5058731;28;20048;-83
2021/05/03 06:16:21;;;;;;;5.03;3.10;;;;;;;5.69;99.72;101016.13;5058421;28;20385;-83
2021/05/03 06:18:47;;;;;;;5.30;2.80;;;;;;;5.44;97.00;101017.72;5056809;28;20040;-83
2021/05/03 06:21:14;;;;;;;4.23;3.50;;;;;;;5.65;98.52;101017.00;5056404;28;20105;-83
2021/05/03 06:23:40;;;;;;;7.87;3.77;;;;;;;5.76;96.16;101010.03;5037338;28;20417;-84
2021/05/03 06:26:09;;;;;;;5.33;2.97;;;;;;;5.83;98.25;101014.44;5070625;28;20052;-83
2021/05/03 06:28:35;;;;;;;12.63;6.97;;;;;;;5.88;97.31;101017.94;5079516;28;20048;-84
2021/05/03 06:31:02;;;;;;;10.20;6.77;;;;;;;5.90;95.05;101016.28;5041872;28;20044;-82
2021/05/03 06:33:28;;;;;;;6.63;4.20;;;;;;;5.91;95.40;101019.78;5072820;28;20032;-83
2021/05/03 06:35:55;;;;;;;7.83;5.63;;;;;;;5.86;96.86;101019.69;5073616;28;20071;-83
2021/05/03 06:38:22;;;;;;;4.87;3.40;;;;;;;5.90;96.53;101015.38;5040480;28;20036;-83
2021/05/03 06:40:49;;;;;;;7.07;3.87;;;;;;;6.00;96.04;101021.56;5057150;28;20048;-83
2021/05/03 06:43:15;;;;;;;5.40;3.60;;;;;;;6.05;96.41;101018.06;5073926;28;20047;-82
2021/05/03 06:45:42;;;;;;;6.33;3.93;;;;;;;6.14;95.19;101015.50;5038392;28;20039;-81
2021/05/03 06:48:09;;;;;;;5.37;3.50;;;;;;;6.14;95.71;101014.63;5061934;28;20048;-82
2021/05/03 06:50:43;;;;;;;7.60;3.50;;;;;;;6.29;93.88;101021.63;5057814;28;20032;-82
2021/05/03 06:53:13;;;;;;;7.03;4.07;;;;;;;6.10;93.19;101016.34;5064018;28;20070;-80
2021/05/03 06:55:41;;;;;;;5.37;3.50;;;;;;;6.30;97.18;101021.63;5054796;28;20037;-81
2021/05/03 06:58:07;;;;;;;9.60;3.67;;;;;;;6.36;95.69;101021.66;5056807;28;20055;-81
2021/05/03 07:00:41;;;;;;;6.77;3.50;;;;;;;6.29;94.34;101032.13;5052068;28;20042;-81
2021/05/03 07:03:08;;;;;;;5.57;3.83;;;;;;;6.29;92.60;101024.25;5067530;28;20047;-82
2021/05/03 07:05:35;;;;;;;13.37;10.67;;;;;;;6.11;93.00;101030.31;5052651;28;20146;-82
2021/05/03 07:08:02;;;;;;;7.60;4.03;;;;;;;6.20;93.62;101036.47;5036892;28;20405;-82
2021/05/03 07:10:28;;;;;;;5.83;3.30;;;;;;;6.21;92.79;101037.34;5053019;28;20044;-81
2021/05/03 07:12:55;;;;;;;6.17;4.30;;;;;;;6.17;92.25;101028.59;5052105;28;20044;-84
2021/05/03 07:15:21;;;;;;;4.67;3.33;;;;;;;6.25;93.83;101038.25;5072153;28;20085;-83
2021/05/03 07:17:48;;;;;;;4.83;3.13;;;;;;;6.35;94.31;101051.41;5051796;28;20041;-83
2021/05/03 07:20:15;;;;;;;5.40;3.47;;;;;;;6.20;91.90;101051.34;5053635;28;20036;-83
2021/05/03 07:22:42;;;;;;;4.80;3.20;;;;;;;6.26;91.00;101059.25;5037012;28;20544;-83
2021/05/03 07:25:11;;;;;;;5.83;2.97;;;;;;;6.30;90.04;101057.50;5054342;28;20055;-82
2021/05/03 07:27:38;;;;;;;3.67;2.57;;;;;;;6.27;89.33;101052.25;5038085;28;20044;-83
2021/05/03 07:30:06;;;;;;;10.40;4.13;;;;;;;6.15;88.50;101045.22;5061726;28;20043;-82
2021/05/03 07:32:33;;;;;;;6.70;3.40;;;;;;;6.10;90.24;101055.69;5058616;28;20500;-82
2021/05/03 07:34:59;;;;;;;5.30;3.47;;;;;;;5.95;91.25;101047.75;5059070;28;20551;-82
2021/05/03 07:37:25;;;;;;;5.43;3.20;;;;;;;6.01;91.35;101045.16;5058868;28;20580;-84
2021/05/03 07:39:51;;;;;;;4.80;3.47;;;;;;;6.02;91.25;101056.53;5050420;28;20038;-85
2021/05/03 07:42:18;;;;;;;5.97;3.90;;;;;;;6.05;91.28;101056.53;5058200;28;20044;-83
2021/05/03 07:45:04;;;;;;;4.97;3.10;;;;;;;5.99;91.54;101049.53;5043567;28;20121;-83
2021/05/03 07:47:32;;;;;;;6.53;3.40;;;;;;;5.96;93.50;101056.47;5026962;28;20048;-82
2021/05/03 07:49:58;;;;;;;7.20;3.23;;;;;;;6.07;92.97;101055.69;5054317;28;20063;-83
2021/05/03 07:52:29;;;;;;;5.17;3.50;;;;;;;6.07;93.47;101054.81;5064185;28;20044;-81
2021/05/03 07:54:55;;;;;;;4.90;3.67;;;;;;;5.98;92.81;101060.00;5072934;28;20709;-82
2021/05/03 07:57:22;;;;;;;4.60;2.90;;;;;;;5.92;93.63;101066.09;5042166;28;20764;-83
2021/05/03 07:59:48;;;;;;;5.03;3.03;;;;;;;5.74;94.79;101055.47;5042740;28;20944;-85
2021/05/03 08:02:15;;;;;;;5.67;3.47;;;;;;;5.84;97.94;101054.66;5035879;28;20427;-85
2021/05/03 08:04:43;;;;;;;5.33;3.43;;;;;;;5.94;95.84;101064.34;5040483;28;20089;-84
2021/05/03 08:07:09;;;;;;;5.90;3.30;;;;;;;6.04;96.56;101065.25;5041613;28;20485;-82
2021/05/03 08:09:37;;;;;;;4.73;3.10;;;;;;;6.10;95.42;101063.56;5038382;28;20033;-84
2021/05/03 08:12:04;;;;;;;11.07;4.03;;;;;;;6.16;96.25;101066.22;5041056;28;20074;-83
2021/05/03 08:14:31;;;;;;;4.50;2.87;;;;;;;6.21;94.04;101069.72;5044668;28;20040;-84
2021/05/03 08:17:04;;;;;;;5.67;2.97;;;;;;;6.39;92.94;101063.69;5041402;28;20409;-82
2021/05/03 08:19:32;;;;;;;6.18;3.10;;;;;;;6.47;91.50;101071.53;5043305;28;20566;-82
2021/05/03 08:22:00;;;;;;;4.20;2.90;;;;;;;6.55;91.44;101072.44;5041944;28;20044;-83
2021/05/03 08:24:30;;;;;;;6.70;3.30;;;;;;;6.60;91.72;101073.34;5043248;28;20064;-82
2021/05/03 08:26:58;;;;;;;4.03;3.00;;;;;;;6.71;90.23;101084.72;5070863;28;20055;-83
2021/05/03 08:29:25;;;;;;;4.07;2.70;;;;;;;6.71;89.47;101081.22;5040292;28;20037;-83
2021/05/03 08:31:51;;;;;;;7.17;3.17;;;;;;;6.74;86.87;101091.75;5058889;28;20089;-83
2021/05/03 08:34:18;;;;;;;5.07;2.80;;;;;;;6.75;89.82;101088.25;5058293;28;20048;-82
2021/05/03 08:36:44;;;;;;;4.37;2.57;;;;;;;7.01;89.39;101086.53;5057436;28;20047;-83
2021/05/03 08:39:11;;;;;;;5.82;3.10;;;;;;;7.06;88.05;101083.91;5041512;28;20074;-82
2021/05/03 08:41:39;;;;;;;7.23;3.03;;;;;;;7.13;85.90;101087.41;5058224;28;20036;-83
2021/05/03 08:44:05;;;;;;;5.33;2.70;;;;;;;7.22;86.80;101095.28;5053438;28;20044;-83
2021/05/03 08:46:33;;;;;;;4.30;2.87;;;;;;;7.30;83.86;101085.66;5045486;28;20060;-83
2021/05/03 08:51:44;;;;;;;4.00;2.55;;;;;;;7.63;84.25;101090.88;5070800;28;20033;-82
2021/05/03 08:54:20;;;;;;;3.05;2.40;;;;;;;7.85;82.87;101078.59;5052582;28;20040;-83
2021/05/03 08:56:47;;;;;;;3.20;2.40;;;;;;;7.90;82.88;101082.09;5051621;28;20467;-83
2021/05/03 08:59:14;;;;;;;4.40;2.60;;;;;;;8.03;82.33;101076.78;5037221;28;20043;-82
2021/05/03 09:01:48;;;;;;;4.35;2.40;;;;;;;7.99;80.82;101086.44;5052617;28;20040;-83
2021/05/03 09:04:15;;;;;;;2.38;2.10;;;;;;;8.04;82.17;101073.25;5054031;28;20052;-83
2021/05/03 09:07:13;;;;;;;2.88;2.10;;;;;;;8.38;82.17;101074.03;5035967;28;20072;-83
2021/05/03 09:09:47;;;;;;;3.53;2.22;;;;;;;8.55;77.97;101071.31;5054401;28;20048;-83
2021/05/03 09:12:25;;;;;;;3.75;2.50;;;;;;;8.61;79.90;101074.78;5035711;28;20044;-84
2021/05/03 09:15:02;;;;;;;3.85;1.90;;;;;;;8.40;73.41;101077.50;5055324;28;20048;-83
2021/05/03 09:17:34;;;;;;;2.75;1.58;;;;;;;8.36;77.18;101065.25;5056979;28;20085;-83
2021/05/03 09:20:16;;;;;;;5.10;2.40;;;;;;;8.41;79.98;101077.53;5054374;28;20063;-83
2021/05/03 09:23:06;;;;;;;2.67;2.03;;;;;;;8.56;78.91;101068.66;5057034;28;20040;-83
2021/05/03 09:25:47;;;;;;;3.63;2.28;;;;;;;9.11;80.08;101068.28;5071161;28;20044;-84
2021/05/03 09:28:30;;;;;;;4.40;1.92;;;;;;;9.77;74.72;101065.03;5039847;28;20132;-83
2021/05/03 09:30:56;;;;;;;3.08;2.10;;;;;;;9.93;67.87;101061.34;5068180;28;20044;-84
2021/05/03 09:33:31;;;;;;;2.55;2.15;;;;;;;10.25;75.23;101060.09;5058120;28;20218;-83
2021/05/03 09:36:00;;;;;;;5.82;1.70;;;;;;;10.25;66.88;101049.53;5056777;28;20093;-83
2021/05/03 09:38:38;;;;;;;3.30;2.20;;;;;;;9.73;68.24;101063.31;5072254;28;20047;-84
2021/05/03 09:41:11;;;;;;;2.90;1.50;;;;;;;9.72;69.83;101048.38;5054715;28;20528;-84
2021/05/03 09:43:39;;;;;;;2.65;1.88;;;;;;;9.67;67.42;101071.28;5057497;28;20043;-83
2021/05/03 09:46:32;;;;;;;2.40;1.60;;;;;;;9.18;66.60;101062.09;5062948;28;20047;-84
2021/05/03 09:49:09;;;;;;;2.75;2.00;;;;;;;9.16;70.50;101058.56;5049451;28;20042;-83
2021/05/03 09:51:39;;;;;;;2.10;1.45;;;;;;;9.10;71.01;101050.72;5053550;28;20052;-83
2021/05/03 09:54:30;;;;;;;2.47;1.45;;;;;;;8.79;69.19;101062.38;5056025;28;20058;-83
2021/05/03 09:57:09;;;;;;;2.75;1.50;;;;;;;8.66;67.24;101064.19;5058812;28;20055;-83
2021/05/03 09:59:46;;;;;;;2.42;1.45;;;;;;;8.79;68.47;101054.47;5057064;28;20036;-83
2021/05/03 10:02:17;;;;;;;1.40;1.20;;;;;;;8.96;69.59;101061.38;5045266;28;20106;-82
2021/05/03 10:04:47;;;;;;;1.88;1.30;;;;;;;8.95;68.01;101064.03;5058589;28;20046;-83
2021/05/03 10:07:17;;;;;;;2.15;1.30;;;;;;;8.67;67.45;101065.97;5049967;28;20053;-83
2021/05/03 10:09:54;;;;;;;3.17;1.25;;;;;;;8.53;66.72;101058.16;5035897;28;20040;-82
2021/05/03 10:12:20;;;;;;;1.70;1.23;;;;;;;8.42;70.67;101058.22;5059299;28;20046;-83
2021/05/03 10:14:47;;;;;;;2.40;1.60;;;;;;;8.54;71.81;101057.25;5043348;28;20032;-82
2021/05/03 10:17:16;;;;;;;1.95;1.30;;;;;;;8.73;69.41;101052.75;5062589;28;20044;-80
2021/05/03 10:19:43;;;;;;;4.20;1.33;;;;;;;8.95;69.87;101062.25;5055468;28;20032;-83
2021/05/03 10:22:16;;;;;;;2.35;1.40;;;;;;;9.18;66.41;101054.19;5057328;28;20097;-84
2021/05/03 10:24:44;;;;;;;2.33;1.10;;;;;;;9.49;64.09;101053.88;5073393;28;20587;-82
2021/05/03 10:27:11;;;;;;;3.75;1.40;;;;;;;9.75;67.66;101046.59;5041426;28;20520;-83
2021/05/03 10:29:40;;;;;;;1.33;1.20;;;;;;;9.56;61.29;101043.25;5071869;28;20055;-83
2021/05/03 10:32:12;;;;;;;3.08;1.30;;;;;;;9.69;63.65;101056.34;5041184;28;20044;-82
2021/05/03 10:34:48;;;;;;;4.70;1.70;;;;;;;9.56;62.79;101043.25;5089846;28;20104;-83
2021/05/03 10:37:38;;;;;;;1.45;1.10;;;;;;;9.72;63.20;101049.25;5057501;28;20044;-84
2021/05/03 10:40:07;;;;;;;2.08;1.20;;;;;;;10.15;62.96;101052.25;5055447;28;20090;-83
2021/05/03 10:42:33;;;;;;;1.77;1.33;;;;;;;10.61;61.51;101049.06;5071724;28;20041;-83
2021/05/03 10:45:13;;;;;;;2.10;1.05;;;;;;;11.02;60.79;101046.69;5041331;28;20048;-82
2021/05/03 10:47:54;;;;;;;2.83;1.13;;;;;;;10.75;57.48;101046.19;5058159;28;20052;-83
2021/05/03 10:50:24;;;;;;;1.30;1.20;;;;;;;11.04;59.79;101055.47;5058681;28;20051;-83
2021/05/03 10:52:51;;;;;;;1.30;1.15;;;;;;;11.28;58.33;101044.47;5055333;28;20496;-83
2021/05/03 10:55:18;;;;;;;2.40;1.13;;;;;;;11.53;58.90;101048.44;5037834;28;20047;-83
2021/05/03 10:57:58;;;;;;;2.30;1.45;;;;;;;11.45;56.14;101052.13;5067573;28;20151;-83
2021/05/03 11:00:32;;;;;;;2.30;1.77;;;;;;;10.96;54.61;101042.34;5072418;28;20040;-84
2021/05/03 11:02:58;;;;;;;2.15;1.58;;;;;;;10.65;57.74;101050.75;5057380;28;20040;-84
2021/05/03 11:05:27;;;;;;;2.97;1.50;;;;;;;10.21;57.59;101058.38;5057443;28;20147;-83
2021/05/03 11:08:06;;;;;;;2.08;1.23;;;;;;;9.94;58.87;101054.31;5038862;28;20103;-83
2021/05/03 11:10:58;;;;;;;2.80;1.45;;;;;;;9.71;57.91;101054.53;5073997;28;20032;-83
2021/05/03 11:13:36;;;;;;;2.28;1.10;;;;;;;9.47;60.36;101061.81;5056925;28;20059;-83
2021/05/03 11:16:24;;;;;;;2.28;1.58;;;;;;;9.55;61.55;101054.69;5093036;28;20040;-83
2021/05/03 11:18:52;;;;;;;3.63;2.85;;;;;;;9.93;61.67;101057.84;5071228;28;20041;-82
2021/05/03 11:21:19;;;;;;;1.77;1.40;;;;;;;10.05;60.49;101052.41;5043932;28;20058;-83
2021/05/03 11:23:46;;;;;;;3.33;1.88;;;;;;;10.04;62.52;101043.59;5060497;28;20070;-83
2021/05/03 11:26:29;;;;;;;4.10;1.45;;;;;;;9.59;60.30;101056.44;5059190;28;20086;-82
2021/05/03 11:29:08;;;;;;;2.83;1.35;;;;;;;9.40;61.85;101060.13;5055916;28;20040;-83
2021/05/03 11:31:35;;;;;;;1.70;1.10;;;;;;;9.25;62.40;101060.28;5059699;28;20040;-83
2021/05/03 11:34:10;;;;;;;1.75;1.13;;;;;;;9.10;63.59;101056.00;5067269;28;20070;-82
2021/05/03 11:36:42;;;;;;;1.50;1.20;;;;;;;9.27;62.77;101050.59;5062747;28;20127;-83
2021/05/03 11:39:24;;;;;;;2.53;1.38;;;;;;;9.63;63.56;101043.19;5055409;28;20092;-82
2021/05/03 11:42:02;;;;;;;1.90;1.25;;;;;;;10.14;59.34;101032.03;5056849;28;20059;-83
2021/05/03 11:44:45;;;;;;;1.75;1.20;;;;;;;10.32;58.47;101032.72;5064800;28;20432;-83
2021/05/03 11:47:13;;;;;;;4.88;1.83;;;;;;;10.52;58.17;101020.13;5044003;28;20147;-82
2021/05/03 11:49:44;;;;;;;4.13;1.60;;;;;;;10.70;57.82;101034.84;5042404;28;20116;-83
2021/05/03 11:52:11;;;;;;;2.17;1.42;;;;;;;10.81;57.28;101029.38;5075123;28;20074;-83
2021/05/03 11:54:43;;;;;;;1.30;1.10;;;;;;;10.76;60.12;101036.50;5061553;28;20047;-82